Orlando, Florida
Traffic Map
Current Weather Conditions
Orlando, Florida
Overcast Thunderstorm
Overcast
80°
Feels Like: 86°
Wind Chill: 80° Ceiling: 3800
Heat Index: 86° Visibility: 10mi
Dew Point: 77° Wind: 7mph
Humidity: 90% Direction: 170° (S)
Pressure: 30in Gusts: 0mph
Raw Report DataKORL 301953Z 17006KT 10SM TS BKN038 OVC065 27/25 A3000 RMK AO2 WSHFT 1859 LTG DSNT N AND SW RAB22E45 SLP163 P0000 T02670250
Traffic Incident Summary
Active as of:
Severity:
Category:
InformationThere was an issue retrieving the traffic information for this location. Please try a different location or try again shortly.
Advertisements
Track Severe Weather on mobile